Карточка аэропорта UNKL

Внимание!
Информация на этой странице в стадии наполнения.
Если вы не увидели какой-то информации, или заметили неточность - пожалуйста сообщите нам!
Спасибо!
Команда RU-STAFF
Название аэропортаЕмельяново
Название аэропорта (англ.)Yemelyanovo
Превышение942 ft. (287.1 m.)
Координаты56°10.386', 92°29.598'
Высота перехода1200m
Эшелон переходаQFE>=729mm: FL060; QFE<729mm: FL070
Коды ответчика5320-5377
Зона ОрВДКрасноярск РПИ (UNKL)
Данные METARUNKL 100900Z 24008G13MPS 9000 -SHSN DRSN SCT033CB M09/M15 Q1021 WS R29 R29/810250 NOSIG RMK QFE740
Проноз погоды (TAF)UNKL 100753Z 1009/1109 25008G16MPS 6000 -SHSN BLSN BKN016CB TEMPO 1009/1013 2000 SHSN BLSN BECMG 1014/1016 27003MPS NSW
NOTAMshow/hide NOTAM
AWOS   TABLE

Информация о ВПП

ВПП Длина ВПП (м.) Покрытие Курс ВПП Частота ILS
113700Асфальтобетон109110.5
293700Асфальтобетон289111.7

Диспетчерские позиции

Позывной Наименование органа УВД Частота
UNKL_TWRКрасноярск-Старт/Посадка118.3
UNKL_R_APPКрасноярск-Круг122.0
UNKL_GNDКрасноярск-Руление121.9
UNKL_APPКрасноярск-Подход127.7



Спутниковое изображение